PWSweather.com
Personal Weather Stations
Station Observations
GRD01
Warsaw, LesznoPL 05-084

WarsawLesznoPL 05-084

Lat: 52.257404, Lon: 20.564847

Elevation: 298

Station Type: WH3080

http://pogoda.kampinos.waw.pl

High Low Average
Temperature 69.6°F20.9°C 56.5°F13.6°C 62.0°F16.7°C
Dew Point 60.4°F15.8°C 46.3°F7.9°C 52.7°F11.5°C
Winds 10.7 mph 17.2 kmh Calm Calm 3.0 mph W4.8 kmh W
Wind Gusts 14.5 mph23.3 kmh -- 6.0 mph9.7 kmh
Humidity 100% 45% 74%
Pressure 30.65 in1037.9 mb 30.59 in1035.9 mb -
Precipitation 0.19 in4.8 mm - -
Hour Temp Dew Point Humidity Winds Wind Gusts Pressure Precip Precip Rate Daily Precip Total
12:00 AM 57.4°F14.1°C 55.4°F13.0°C 93% 5.4 mph NW8.7 kmh NW 8.3 mph13.4 kmh 30.61 in1036.6 mb 0.06 in1.5 mm 0.00 in0.0 mm 0.06 in1.5 mm
12:05 AM 57.4°F14.1°C 55.4°F13.0°C 93% 5.4 mph NW8.7 kmh NW 7.6 mph12.2 kmh 30.16 in1021.3 mb 0.06 in1.5 mm 0.00 in0.0 mm 0.07 in1.8 mm
12:15 AM 57.4°F14.1°C 55.4°F13.0°C 93% 2.2 mph NW3.5 kmh NW 8.3 mph13.4 kmh 30.61 in1036.6 mb 0.06 in1.5 mm 0.00 in0.0 mm 0.07 in1.8 mm
12:30 AM 57.2°F14.0°C 55.2°F12.9°C 93% 3.8 mph NW6.1 kmh NW 7.6 mph12.2 kmh 30.61 in1036.6 mb 0.07 in1.8 mm 0.04 in1.0 mm 0.09 in2.3 mm
12:35 AM 57.2°F14.0°C 55.2°F12.9°C 93% 3.8 mph NW6.1 kmh NW 5.4 mph8.7 kmh 30.16 in1021.3 mb 0.07 in1.8 mm 0.00 in0.0 mm 0.11 in2.8 mm
12:45 AM 57.2°F14.0°C 55.2°F12.9°C 93% 3.8 mph NW6.1 kmh NW 13.0 mph20.9 kmh 30.61 in1036.6 mb 0.07 in1.8 mm 0.00 in0.0 mm 0.11 in2.8 mm
01:00 AM 57.0°F13.9°C 55.0°F12.8°C 93% 3.8 mph N6.1 kmh N 6.0 mph9.7 kmh 30.61 in1036.6 mb 0.05 in1.3 mm 0.00 in0.0 mm 0.11 in2.8 mm
01:05 AM 57.0°F13.9°C 55.0°F12.8°C 93% 3.8 mph N6.1 kmh N 5.4 mph8.7 kmh 30.16 in1021.3 mb 0.05 in1.3 mm 0.00 in0.0 mm 0.12 in3.0 mm
01:15 AM 57.0°F13.9°C 55.3°F12.9°C 94% 5.4 mph NW8.7 kmh NW 6.9 mph11.1 kmh 30.61 in1036.6 mb 0.04 in1.0 mm 0.00 in0.0 mm 0.12 in3.0 mm
01:30 AM 57.0°F13.9°C 55.3°F12.9°C 94% 6.0 mph NW9.7 kmh NW 9.8 mph15.8 kmh 30.62 in1036.9 mb 0.04 in1.0 mm 0.00 in0.0 mm 0.13 in3.3 mm
01:35 AM 57.0°F13.9°C 55.3°F12.9°C 94% 6.0 mph W9.7 kmh W 7.6 mph12.2 kmh 30.17 in1021.7 mb 0.04 in1.0 mm 0.00 in0.0 mm 0.14 in3.6 mm
01:45 AM 57.0°F13.9°C 55.3°F12.9°C 94% 2.2 mph NW3.5 kmh NW 8.3 mph13.4 kmh 30.61 in1036.6 mb 0.04 in1.0 mm 0.00 in0.0 mm 0.14 in3.6 mm
02:00 AM 57.0°F13.9°C 55.3°F12.9°C 94% 2.2 mph NW3.5 kmh NW 4.5 mph7.2 kmh 30.62 in1036.9 mb 0.05 in1.3 mm 0.01 in0.3 mm 0.15 in3.8 mm
02:05 AM 57.0°F13.9°C 55.3°F12.9°C 94% 2.2 mph W3.5 kmh W 3.1 mph5.0 kmh 30.17 in1021.7 mb 0.05 in1.3 mm 0.00 in0.0 mm 0.17 in4.3 mm
02:15 AM 57.0°F13.9°C 55.3°F12.9°C 94% 3.8 mph WNW6.1 kmh WNW 6.9 mph11.1 kmh 30.62 in1036.9 mb 0.04 in1.0 mm 0.00 in0.0 mm 0.15 in3.8 mm
02:30 AM 56.8°F13.8°C 55.1°F12.8°C 94% 3.8 mph W6.1 kmh W 6.0 mph9.7 kmh 30.61 in1036.6 mb 0.04 in1.0 mm 0.00 in0.0 mm 0.17 in4.3 mm
02:35 AM 56.8°F13.8°C 55.1°F12.8°C 94% 3.8 mph W6.1 kmh W 4.5 mph7.2 kmh 30.16 in1021.3 mb 0.04 in1.0 mm 0.00 in0.0 mm 0.18 in4.6 mm
02:45 AM 56.7°F13.7°C 55.0°F12.8°C 94% Calm Calm 2.2 mph3.5 kmh 30.61 in1036.6 mb 0.04 in1.0 mm 0.00 in0.0 mm 0.18 in4.6 mm
03:00 AM 56.8°F13.8°C 55.4°F13.0°C 95% 1.6 mph S2.6 kmh S 3.1 mph5.0 kmh 30.61 in1036.6 mb 0.02 in0.5 mm 0.00 in0.0 mm 0.18 in4.6 mm
03:05 AM 56.8°F13.8°C 55.4°F13.0°C 95% 1.6 mph SW2.6 kmh SW 2.2 mph3.5 kmh 30.17 in1021.7 mb 0.02 in0.5 mm 0.00 in0.0 mm 0.19 in4.8 mm
03:15 AM 56.8°F13.8°C 55.4°F13.0°C 95% 1.6 mph NW2.6 kmh NW 3.1 mph5.0 kmh 30.61 in1036.6 mb 0.04 in1.0 mm 0.12 in3.0 mm 0.19 in4.8 mm
03:30 AM 56.8°F13.8°C 55.4°F13.0°C 95% 0.7 mph NW1.1 kmh NW 3.8 mph6.1 kmh 30.61 in1036.6 mb 0.02 in0.5 mm 0.00 in0.0 mm 0.19 in4.8 mm
03:35 AM 56.8°F13.8°C 55.4°F13.0°C 95% 2.2 mph W3.5 kmh W 3.1 mph5.0 kmh 30.17 in1021.7 mb 0.02 in0.5 mm 0.00 in0.0 mm 0.20 in5.1 mm
03:45 AM 56.8°F13.8°C 55.4°F13.0°C 95% 0.7 mph NW1.1 kmh NW 3.8 mph6.1 kmh 30.61 in1036.6 mb 0.01 in0.3 mm 0.00 in0.0 mm 0.19 in4.8 mm
04:00 AM 56.7°F13.7°C 55.2°F12.9°C 95% 1.6 mph NNW2.6 kmh NNW 3.1 mph5.0 kmh 30.61 in1036.6 mb 0.01 in0.3 mm 0.00 in0.0 mm 0.19 in4.8 mm
04:05 AM 56.7°F13.7°C 55.2°F12.9°C 95% 0.7 mph N1.1 kmh N 1.6 mph2.6 kmh 30.16 in1021.3 mb 0.01 in0.3 mm 0.00 in0.0 mm 0.20 in5.1 mm
04:15 AM 56.7°F13.7°C 55.2°F12.9°C 95% 1.6 mph NW2.6 kmh NW 2.2 mph3.5 kmh 30.61 in1036.6 mb 0.00 in0.0 mm 0.00 in0.0 mm 0.19 in4.8 mm
04:30 AM 56.5°F13.6°C 55.1°F12.8°C 95% 1.6 mph NW2.6 kmh NW 3.1 mph5.0 kmh 30.62 in1036.9 mb 0.00 in0.0 mm 0.00 in0.0 mm 0.19 in4.8 mm
04:35 AM 56.7°F13.7°C 55.2°F12.9°C 95% 0.7 mph NE1.1 kmh NE 2.2 mph3.5 kmh 30.17 in1021.7 mb 0.00 in0.0 mm 0.00 in0.0 mm 0.20 in5.1 mm
04:45 AM 56.5°F13.6°C 55.1°F12.8°C 95% 0.7 mph N1.1 kmh N 3.1 mph5.0 kmh 30.61 in1036.6 mb 0.00 in0.0 mm 0.00 in0.0 mm 0.19 in4.8 mm
05:00 AM 56.5°F13.6°C 55.1°F12.8°C 95% 2.2 mph NW3.5 kmh NW 3.1 mph5.0 kmh 30.61 in1036.6 mb 0.00 in0.0 mm 0.00 in0.0 mm 0.19 in4.8 mm
05:05 AM 56.5°F13.6°C 55.1°F12.8°C 95% 0.7 mph NW1.1 kmh NW 1.6 mph2.6 kmh 30.17 in1021.7 mb 0.00 in0.0 mm 0.00 in0.0 mm 0.20 in5.1 mm
05:15 AM 56.5°F13.6°C 55.1°F12.8°C 95% 0.7 mph W1.1 kmh W 3.1 mph5.0 kmh 30.62 in1036.9 mb 0.00 in0.0 mm 0.00 in0.0 mm 0.19 in4.8 mm
05:30 AM 56.7°F13.7°C 55.5°F13.1°C 96% 0.7 mph WSW1.1 kmh WSW 3.8 mph6.1 kmh 30.62 in1036.9 mb 0.00 in0.0 mm 0.00 in0.0 mm 0.19 in4.8 mm
05:35 AM 56.7°F13.7°C 55.5°F13.1°C 96% 0.7 mph SW1.1 kmh SW 1.6 mph2.6 kmh 30.18 in1022.0 mb 0.00 in0.0 mm 0.00 in0.0 mm 0.20 in5.1 mm
05:45 AM 56.7°F13.7°C 55.5°F13.1°C 96% Calm Calm 2.2 mph3.5 kmh 30.62 in1036.9 mb 0.00 in0.0 mm 0.00 in0.0 mm 0.19 in4.8 mm
06:00 AM 56.8°F13.8°C 55.7°F13.2°C 96% Calm Calm 2.2 mph3.5 kmh 30.61 in1036.6 mb 0.00 in0.0 mm 0.00 in0.0 mm 0.19 in4.8 mm
06:05 AM 56.8°F13.8°C 55.7°F13.2°C 96% 0.7 mph SE1.1 kmh SE 1.6 mph2.6 kmh 30.18 in1022.0 mb 0.00 in0.0 mm 0.00 in0.0 mm 0.20 in5.1 mm
06:15 AM 57.0°F13.9°C 55.9°F13.3°C 96% 1.6 mph SW2.6 kmh SW 3.1 mph5.0 kmh 30.63 in1037.3 mb 0.00 in0.0 mm 0.00 in0.0 mm 0.19 in4.8 mm
06:30 AM 57.4°F14.1°C 56.2°F13.4°C 96% 1.6 mph SW2.6 kmh SW 3.1 mph5.0 kmh 30.62 in1036.9 mb 0.00 in0.0 mm 0.00 in0.0 mm 0.19 in4.8 mm
06:35 AM 57.4°F14.1°C 56.2°F13.4°C 96% 0.7 mph W1.1 kmh W 1.6 mph2.6 kmh 30.18 in1022.0 mb 0.00 in0.0 mm 0.00 in0.0 mm 0.20 in5.1 mm
06:45 AM 57.6°F14.2°C 56.7°F13.7°C 97% 0.7 mph SSW1.1 kmh SSW 2.2 mph3.5 kmh 30.63 in1037.3 mb 0.00 in0.0 mm 0.00 in0.0 mm 0.19 in4.8 mm
07:00 AM 57.7°F14.3°C 56.9°F13.8°C 97% 2.2 mph S3.5 kmh S 3.8 mph6.1 kmh 30.63 in1037.3 mb 0.00 in0.0 mm 0.00 in0.0 mm 0.19 in4.8 mm
07:05 AM 57.7°F14.3°C 56.9°F13.8°C 97% 2.2 mph S3.5 kmh S 3.8 mph6.1 kmh 30.18 in1022.0 mb 0.00 in0.0 mm 0.00 in0.0 mm 0.20 in5.1 mm
07:15 AM 58.1°F14.5°C 57.3°F14.1°C 97% Calm Calm 4.5 mph7.2 kmh 30.62 in1036.9 mb 0.00 in0.0 mm 0.00 in0.0 mm 0.19 in4.8 mm
07:30 AM 58.5°F14.7°C 57.6°F14.2°C 97% 4.5 mph SW7.2 kmh SW 6.0 mph9.7 kmh 30.64 in1037.6 mb 0.00 in0.0 mm 0.00 in0.0 mm 0.19 in4.8 mm
07:35 AM 58.3°F14.6°C 57.4°F14.1°C 97% 3.8 mph SW6.1 kmh SW 6.0 mph9.7 kmh 30.19 in1022.4 mb 0.00 in0.0 mm 0.00 in0.0 mm 0.20 in5.1 mm
07:45 AM 59.0°F15.0°C 59.0°F15.0°C 100% 0.7 mph SE1.1 kmh SE 3.8 mph6.1 kmh 30.63 in1037.3 mb 0.00 in0.0 mm 0.00 in0.0 mm 0.19 in4.8 mm
08:00 AM 59.5°F15.3°C 59.5°F15.3°C 100% 3.8 mph W6.1 kmh W 6.9 mph11.1 kmh 30.64 in1037.6 mb 0.00 in0.0 mm 0.00 in0.0 mm 0.19 in4.8 mm
08:05 AM 59.5°F15.3°C 59.5°F15.3°C 100% 3.1 mph W5.0 kmh W 4.5 mph7.2 kmh 30.20 in1022.7 mb 0.00 in0.0 mm 0.00 in0.0 mm 0.20 in5.1 mm
08:15 AM 59.4°F15.2°C 59.4°F15.2°C 100% 2.2 mph NW3.5 kmh NW 6.0 mph9.7 kmh 30.64 in1037.6 mb 0.00 in0.0 mm 0.00 in0.0 mm 0.19 in4.8 mm
08:30 AM 59.9°F15.5°C 59.9°F15.5°C 100% 3.8 mph W6.1 kmh W 6.9 mph11.1 kmh 30.64 in1037.6 mb 0.00 in0.0 mm 0.00 in0.0 mm 0.19 in4.8 mm
08:35 AM 59.9°F15.5°C 59.9°F15.5°C 100% 3.1 mph NW5.0 kmh NW 3.8 mph6.1 kmh 30.20 in1022.7 mb 0.00 in0.0 mm 0.00 in0.0 mm 0.20 in5.1 mm
08:45 AM 60.4°F15.8°C 60.4°F15.8°C 100% 4.5 mph NW7.2 kmh NW 6.0 mph9.7 kmh 30.65 in1037.9 mb 0.00 in0.0 mm 0.00 in0.0 mm 0.19 in4.8 mm
09:00 AM 60.8°F16.0°C 59.9°F15.5°C 97% 4.5 mph WNW7.2 kmh WNW 6.0 mph9.7 kmh 30.64 in1037.6 mb 0.00 in0.0 mm 0.00 in0.0 mm 0.19 in4.8 mm
09:05 AM 60.8°F16.0°C 59.9°F15.5°C 97% 1.6 mph N2.6 kmh N 3.1 mph5.0 kmh 30.20 in1022.7 mb 0.00 in0.0 mm 0.00 in0.0 mm 0.20 in5.1 mm
09:15 AM 61.3°F16.3°C 59.9°F15.5°C 95% 6.9 mph NNW11.1 kmh NNW 8.3 mph13.4 kmh 30.64 in1037.6 mb 0.00 in0.0 mm 0.00 in0.0 mm 0.19 in4.8 mm
09:30 AM 62.4°F16.9°C 59.8°F15.4°C 91% 3.1 mph WNW5.0 kmh WNW 6.9 mph11.1 kmh 30.64 in1037.6 mb 0.00 in0.0 mm 0.00 in0.0 mm 0.19 in4.8 mm
09:35 AM 62.2°F16.8°C 59.9°F15.5°C 92% 3.8 mph SW6.1 kmh SW 4.5 mph7.2 kmh 30.20 in1022.7 mb 0.00 in0.0 mm 0.00 in0.0 mm 0.20 in5.1 mm
09:45 AM 63.3°F17.4°C 59.1°F15.1°C 86% 5.4 mph WNW8.7 kmh WNW 7.6 mph12.2 kmh 30.65 in1037.9 mb 0.00 in0.0 mm 0.00 in0.0 mm 0.19 in4.8 mm
10:00 AM 63.5°F17.5°C 55.8°F13.2°C 76% 3.1 mph NW5.0 kmh NW 7.6 mph12.2 kmh 30.64 in1037.6 mb 0.00 in0.0 mm 0.00 in0.0 mm 0.19 in4.8 mm
10:05 AM 63.5°F17.5°C 56.2°F13.4°C 77% 4.5 mph SW7.2 kmh SW 6.0 mph9.7 kmh 30.20 in1022.7 mb 0.00 in0.0 mm 0.00 in0.0 mm 0.20 in5.1 mm
10:15 AM 64.6°F18.1°C 55.3°F12.9°C 72% 8.3 mph NW13.4 kmh NW 11.4 mph18.3 kmh 30.64 in1037.6 mb 0.00 in0.0 mm 0.00 in0.0 mm 0.19 in4.8 mm
10:30 AM 64.8°F18.2°C 53.5°F11.9°C 67% 6.9 mph NNW11.1 kmh NNW 11.4 mph18.3 kmh 30.64 in1037.6 mb 0.00 in0.0 mm 0.00 in0.0 mm 0.19 in4.8 mm
10:35 AM 64.8°F18.2°C 53.9°F12.2°C 68% 8.3 mph NW13.4 kmh NW 10.7 mph17.2 kmh 30.20 in1022.7 mb 0.00 in0.0 mm 0.00 in0.0 mm 0.20 in5.1 mm
10:45 AM 65.1°F18.4°C 53.1°F11.7°C 65% 3.8 mph NW6.1 kmh NW 9.2 mph14.8 kmh 30.64 in1037.6 mb 0.00 in0.0 mm 0.00 in0.0 mm 0.19 in4.8 mm
11:00 AM 65.7°F18.7°C 52.7°F11.5°C 63% 5.4 mph W8.7 kmh W 9.2 mph14.8 kmh 30.63 in1037.3 mb 0.00 in0.0 mm 0.00 in0.0 mm 0.19 in4.8 mm
11:05 AM 65.5°F18.6°C 52.5°F11.4°C 63% 3.1 mph SW5.0 kmh SW 4.5 mph7.2 kmh 30.19 in1022.4 mb 0.00 in0.0 mm 0.00 in0.0 mm 0.20 in5.1 mm
11:15 AM 66.0°F18.9°C 51.7°F10.9°C 60% 6.9 mph NW11.1 kmh NW 14.5 mph23.3 kmh 30.63 in1037.3 mb 0.00 in0.0 mm 0.00 in0.0 mm 0.19 in4.8 mm
11:30 AM 66.4°F19.1°C 51.6°F10.9°C 59% 7.6 mph WSW12.2 kmh WSW 10.7 mph17.2 kmh 30.63 in1037.3 mb 0.00 in0.0 mm 0.00 in0.0 mm 0.19 in4.8 mm
11:35 AM 66.4°F19.1°C 52.1°F11.2°C 60% 6.9 mph SW11.1 kmh SW 8.3 mph13.4 kmh 30.19 in1022.4 mb 0.00 in0.0 mm 0.00 in0.0 mm 0.20 in5.1 mm
11:45 AM 66.9°F19.4°C 50.7°F10.4°C 56% 3.8 mph NW6.1 kmh NW 13.0 mph20.9 kmh 30.62 in1036.9 mb 0.00 in0.0 mm 0.00 in0.0 mm 0.19 in4.8 mm
12:00 PM 67.1°F19.5°C 49.9°F9.9°C 54% 7.6 mph NNW12.2 kmh NNW 12.1 mph19.5 kmh 30.62 in1036.9 mb 0.00 in0.0 mm 0.00 in0.0 mm 0.19 in4.8 mm
12:05 PM 66.9°F19.4°C 49.7°F9.8°C 54% 6.0 mph NW9.7 kmh NW 7.6 mph12.2 kmh 30.18 in1022.0 mb 0.00 in0.0 mm 0.00 in0.0 mm 0.20 in5.1 mm
12:15 PM 68.0°F20.0°C 49.7°F9.8°C 52% 8.3 mph W13.4 kmh W 13.0 mph20.9 kmh 30.62 in1036.9 mb 0.00 in0.0 mm 0.00 in0.0 mm 0.19 in4.8 mm
12:30 PM 67.8°F19.9°C 48.0°F8.9°C 49% 6.9 mph WNW11.1 kmh WNW 11.4 mph18.3 kmh 30.63 in1037.3 mb 0.00 in0.0 mm 0.00 in0.0 mm 0.19 in4.8 mm
12:35 PM 67.8°F19.9°C 47.4°F8.6°C 48% 6.0 mph W9.7 kmh W 8.3 mph13.4 kmh 30.17 in1021.7 mb 0.00 in0.0 mm 0.00 in0.0 mm 0.20 in5.1 mm
12:45 PM 67.8°F19.9°C 48.0°F8.9°C 49% 5.4 mph NW8.7 kmh NW 11.4 mph18.3 kmh 30.62 in1036.9 mb 0.00 in0.0 mm 0.00 in0.0 mm 0.19 in4.8 mm
01:00 PM 68.5°F20.3°C 48.1°F8.9°C 48% 9.8 mph NW15.8 kmh NW 13.6 mph21.9 kmh 30.62 in1036.9 mb 0.00 in0.0 mm 0.00 in0.0 mm 0.19 in4.8 mm
01:05 PM 68.5°F20.3°C 48.1°F8.9°C 48% 9.8 mph NW15.8 kmh NW 13.0 mph20.9 kmh 30.17 in1021.7 mb 0.00 in0.0 mm 0.00 in0.0 mm 0.20 in5.1 mm
01:15 PM 69.3°F20.7°C 50.9°F10.5°C 52% 2.2 mph N3.5 kmh N 8.3 mph13.4 kmh 30.61 in1036.6 mb 0.00 in0.0 mm 0.00 in0.0 mm 0.19 in4.8 mm
01:30 PM 68.5°F20.3°C 49.7°F9.8°C 51% 6.0 mph NNW9.7 kmh NNW 7.6 mph12.2 kmh 30.61 in1036.6 mb 0.00 in0.0 mm 0.00 in0.0 mm 0.19 in4.8 mm
01:35 PM 68.5°F20.3°C 49.7°F9.8°C 51% 5.4 mph NW8.7 kmh NW 7.6 mph12.2 kmh 30.17 in1021.7 mb 0.00 in0.0 mm 0.00 in0.0 mm 0.20 in5.1 mm
01:45 PM 68.5°F20.3°C 49.2°F9.6°C 50% 6.0 mph NW9.7 kmh NW 11.4 mph18.3 kmh 30.61 in1036.6 mb 0.00 in0.0 mm 0.00 in0.0 mm 0.19 in4.8 mm
02:00 PM 69.4°F20.8°C 49.4°F9.7°C 49% 10.7 mph NW17.2 kmh NW 14.5 mph23.3 kmh 30.60 in1036.2 mb 0.00 in0.0 mm 0.00 in0.0 mm 0.19 in4.8 mm
02:05 PM 69.4°F20.8°C 49.4°F9.7°C 49% 10.7 mph N17.2 kmh N 13.6 mph21.9 kmh 30.16 in1021.3 mb 0.00 in0.0 mm 0.00 in0.0 mm 0.20 in5.1 mm
02:15 PM 68.7°F20.4°C 48.2°F9.0°C 48% 3.8 mph NW6.1 kmh NW 13.6 mph21.9 kmh 30.60 in1036.2 mb 0.00 in0.0 mm 0.00 in0.0 mm 0.19 in4.8 mm
02:30 PM 67.6°F19.8°C 48.3°F9.1°C 50% 3.1 mph NNW5.0 kmh NNW 9.8 mph15.8 kmh 30.60 in1036.2 mb 0.00 in0.0 mm 0.00 in0.0 mm 0.19 in4.8 mm
02:35 PM 67.6°F19.8°C 48.3°F9.1°C 50% 3.1 mph N5.0 kmh N 4.5 mph7.2 kmh 30.16 in1021.3 mb 0.00 in0.0 mm 0.00 in0.0 mm 0.20 in5.1 mm
02:45 PM 67.3°F19.6°C 48.5°F9.2°C 51% 4.5 mph NW7.2 kmh NW 6.0 mph9.7 kmh 30.60 in1036.2 mb 0.00 in0.0 mm 0.00 in0.0 mm 0.19 in4.8 mm
03:00 PM 68.0°F20.0°C 48.7°F9.3°C 50% 7.6 mph NW12.2 kmh NW 9.8 mph15.8 kmh 30.60 in1036.2 mb 0.00 in0.0 mm 0.00 in0.0 mm 0.19 in4.8 mm
03:05 PM 67.8°F19.9°C 49.0°F9.4°C 51% 3.8 mph N6.1 kmh N 5.4 mph8.7 kmh 30.16 in1021.3 mb 0.00 in0.0 mm 0.00 in0.0 mm 0.20 in5.1 mm
03:15 PM 68.5°F20.3°C 48.1°F8.9°C 48% 3.8 mph NW6.1 kmh NW 9.2 mph14.8 kmh 30.59 in1035.9 mb 0.00 in0.0 mm 0.00 in0.0 mm 0.19 in4.8 mm
03:30 PM 69.6°F20.9°C 49.1°F9.5°C 48% 3.1 mph WNW5.0 kmh WNW 6.9 mph11.1 kmh 30.60 in1036.2 mb 0.00 in0.0 mm 0.00 in0.0 mm 0.19 in4.8 mm
03:35 PM 69.4°F20.8°C 48.9°F9.4°C 48% 3.8 mph SW6.1 kmh SW 5.4 mph8.7 kmh 30.15 in1021.0 mb 0.00 in0.0 mm 0.00 in0.0 mm 0.20 in5.1 mm
03:45 PM 69.3°F20.7°C 47.6°F8.7°C 46% 3.1 mph NNW5.0 kmh NNW 7.6 mph12.2 kmh 30.59 in1035.9 mb 0.00 in0.0 mm 0.00 in0.0 mm 0.19 in4.8 mm
04:00 PM 68.9°F20.5°C 47.8°F8.8°C 47% 3.8 mph NNW6.1 kmh NNW 9.2 mph14.8 kmh 30.59 in1035.9 mb 0.00 in0.0 mm 0.00 in0.0 mm 0.19 in4.8 mm
04:05 PM 68.9°F20.5°C 47.8°F8.8°C 47% 3.8 mph NW6.1 kmh NW 4.5 mph7.2 kmh 30.15 in1021.0 mb 0.00 in0.0 mm 0.00 in0.0 mm 0.20 in5.1 mm
04:15 PM 68.5°F20.3°C 46.3°F7.9°C 45% 3.1 mph WNW5.0 kmh WNW 6.9 mph11.1 kmh 30.59 in1035.9 mb 0.00 in0.0 mm 0.00 in0.0 mm 0.19 in4.8 mm
04:30 PM 67.8°F19.9°C 48.0°F8.9°C 49% 0.7 mph NW1.1 kmh NW 3.8 mph6.1 kmh 30.59 in1035.9 mb 0.00 in0.0 mm 0.00 in0.0 mm 0.19 in4.8 mm
04:35 PM 67.8°F19.9°C 48.0°F8.9°C 49% 0.7 mph NW1.1 kmh NW 1.6 mph2.6 kmh 30.14 in1020.7 mb 0.00 in0.0 mm 0.00 in0.0 mm 0.20 in5.1 mm
04:45 PM 67.3°F19.6°C 48.5°F9.2°C 51% 0.7 mph NW1.1 kmh NW 3.1 mph5.0 kmh 30.59 in1035.9 mb 0.00 in0.0 mm 0.00 in0.0 mm 0.19 in4.8 mm
05:00 PM 67.5°F19.7°C 48.2°F9.0°C 50% Calm Calm 4.5 mph7.2 kmh 30.60 in1036.2 mb 0.00 in0.0 mm 0.00 in0.0 mm 0.19 in4.8 mm
05:05 PM 67.5°F19.7°C 48.2°F9.0°C 50% 2.2 mph NW3.5 kmh NW 3.1 mph5.0 kmh 30.14 in1020.7 mb 0.00 in0.0 mm 0.00 in0.0 mm 0.20 in5.1 mm
05:15 PM 67.3°F19.6°C 48.5°F9.2°C 51% Calm Calm 2.2 mph3.5 kmh 30.59 in1035.9 mb 0.00 in0.0 mm 0.00 in0.0 mm 0.19 in4.8 mm
05:30 PM 66.6°F19.2°C 48.4°F9.1°C 52% 0.7 mph N1.1 kmh N 2.2 mph3.5 kmh 30.59 in1035.9 mb 0.00 in0.0 mm 0.00 in0.0 mm 0.19 in4.8 mm
05:35 PM 66.6°F19.2°C 48.4°F9.1°C 52% 0.7 mph N1.1 kmh N 1.6 mph2.6 kmh 30.15 in1021.0 mb 0.00 in0.0 mm 0.00 in0.0 mm 0.20 in5.1 mm
05:45 PM 65.8°F18.8°C 48.7°F9.3°C 54% Calm Calm 5.4 mph8.7 kmh 30.59 in1035.9 mb 0.00 in0.0 mm 0.00 in0.0 mm 0.19 in4.8 mm
06:00 PM 65.3°F18.5°C 50.1°F10.1°C 58% Calm Calm 5.4 mph8.7 kmh 30.59 in1035.9 mb 0.00 in0.0 mm 0.00 in0.0 mm 0.19 in4.8 mm
06:05 PM 65.3°F18.5°C 50.1°F10.1°C 58% Calm Calm 0.7 mph1.1 kmh 30.15 in1021.0 mb 0.00 in0.0 mm 0.00 in0.0 mm 0.20 in5.1 mm
06:15 PM 64.9°F18.3°C 50.7°F10.4°C 60% Calm Calm 2.2 mph3.5 kmh 30.59 in1035.9 mb 0.00 in0.0 mm 0.00 in0.0 mm 0.19 in4.8 mm
06:30 PM 64.4°F18.0°C 48.8°F9.3°C 57% 3.8 mph NW6.1 kmh NW 9.8 mph15.8 kmh 30.60 in1036.2 mb 0.00 in0.0 mm 0.00 in0.0 mm 0.19 in4.8 mm
06:35 PM 64.4°F18.0°C 48.8°F9.3°C 57% 5.4 mph NW8.7 kmh NW 6.9 mph11.1 kmh 30.15 in1021.0 mb 0.00 in0.0 mm 0.00 in0.0 mm 0.20 in5.1 mm
06:45 PM 64.4°F18.0°C 47.9°F8.8°C 55% 2.2 mph NW3.5 kmh NW 4.5 mph7.2 kmh 30.60 in1036.2 mb 0.00 in0.0 mm 0.00 in0.0 mm 0.19 in4.8 mm
07:00 PM 64.0°F17.8°C 48.0°F8.9°C 56% 2.2 mph NW3.5 kmh NW 3.8 mph6.1 kmh 30.61 in1036.6 mb 0.00 in0.0 mm 0.00 in0.0 mm 0.19 in4.8 mm
07:05 PM 64.0°F17.8°C 48.0°F8.9°C 56% 2.2 mph NW3.5 kmh NW 3.1 mph5.0 kmh 30.16 in1021.3 mb 0.00 in0.0 mm 0.00 in0.0 mm 0.20 in5.1 mm
07:15 PM 63.5°F17.5°C 48.0°F8.9°C 57% 2.2 mph NW3.5 kmh NW 4.5 mph7.2 kmh 30.60 in1036.2 mb 0.00 in0.0 mm 0.00 in0.0 mm 0.19 in4.8 mm
07:30 PM 63.1°F17.3°C 49.5°F9.7°C 61% 1.6 mph NW2.6 kmh NW 4.5 mph7.2 kmh 30.61 in1036.6 mb 0.00 in0.0 mm 0.00 in0.0 mm 0.19 in4.8 mm
07:35 PM 63.1°F17.3°C 49.5°F9.7°C 61% 1.6 mph NW2.6 kmh NW 2.2 mph3.5 kmh 30.16 in1021.3 mb 0.00 in0.0 mm 0.00 in0.0 mm 0.20 in5.1 mm
07:45 PM 63.0°F17.2°C 49.3°F9.6°C 61% 0.7 mph W1.1 kmh W 3.8 mph6.1 kmh 30.61 in1036.6 mb 0.00 in0.0 mm 0.00 in0.0 mm 0.19 in4.8 mm
08:00 PM 62.6°F17.0°C 49.4°F9.7°C 62% 1.6 mph W2.6 kmh W 3.1 mph5.0 kmh 30.61 in1036.6 mb 0.00 in0.0 mm 0.00 in0.0 mm 0.19 in4.8 mm
08:05 PM 62.6°F17.0°C 49.4°F9.7°C 62% 1.6 mph W2.6 kmh W 2.2 mph3.5 kmh 30.17 in1021.7 mb 0.00 in0.0 mm 0.00 in0.0 mm 0.20 in5.1 mm
08:15 PM 62.2°F16.8°C 49.5°F9.7°C 63% 1.6 mph WNW2.6 kmh WNW 3.1 mph5.0 kmh 30.61 in1036.6 mb 0.00 in0.0 mm 0.00 in0.0 mm 0.19 in4.8 mm
08:30 PM 61.9°F16.6°C 49.6°F9.8°C 64% 1.6 mph NW2.6 kmh NW 3.1 mph5.0 kmh 30.61 in1036.6 mb 0.00 in0.0 mm 0.00 in0.0 mm 0.19 in4.8 mm
08:35 PM 61.9°F16.6°C 49.6°F9.8°C 64% 1.6 mph NW2.6 kmh NW 2.2 mph3.5 kmh 30.17 in1021.7 mb 0.00 in0.0 mm 0.00 in0.0 mm 0.20 in5.1 mm
08:45 PM 61.5°F16.4°C 50.5°F10.3°C 67% 1.6 mph NW2.6 kmh NW 2.2 mph3.5 kmh 30.61 in1036.6 mb 0.00 in0.0 mm 0.00 in0.0 mm 0.19 in4.8 mm
09:00 PM 61.3°F16.3°C 51.1°F10.6°C 69% Calm Calm 2.2 mph3.5 kmh 30.60 in1036.2 mb 0.00 in0.0 mm 0.00 in0.0 mm 0.19 in4.8 mm
09:05 PM 61.3°F16.3°C 51.1°F10.6°C 69% Calm Calm -- 30.16 in1021.3 mb 0.00 in0.0 mm 0.00 in0.0 mm 0.20 in5.1 mm
09:15 PM 61.2°F16.2°C 51.7°F10.9°C 71% Calm Calm -- 30.60 in1036.2 mb 0.00 in0.0 mm 0.00 in0.0 mm 0.19 in4.8 mm
09:30 PM 61.0°F16.1°C 51.5°F10.8°C 71% Calm Calm 1.6 mph2.6 kmh 30.60 in1036.2 mb 0.00 in0.0 mm 0.00 in0.0 mm 0.19 in4.8 mm
09:35 PM 61.0°F16.1°C 51.5°F10.8°C 71% Calm Calm 0.7 mph1.1 kmh 30.15 in1021.0 mb 0.00 in0.0 mm 0.00 in0.0 mm 0.20 in5.1 mm
09:45 PM 60.8°F16.0°C 52.1°F11.2°C 73% Calm Calm 0.7 mph1.1 kmh 30.59 in1035.9 mb 0.00 in0.0 mm 0.00 in0.0 mm 0.19 in4.8 mm
10:00 PM 60.6°F15.9°C 52.3°F11.3°C 74% 1.6 mph SW2.6 kmh SW 3.1 mph5.0 kmh 30.60 in1036.2 mb 0.00 in0.0 mm 0.00 in0.0 mm 0.19 in4.8 mm
10:05 PM 60.6°F15.9°C 52.3°F11.3°C 74% Calm Calm -- 30.16 in1021.3 mb 0.00 in0.0 mm 0.00 in0.0 mm 0.20 in5.1 mm
10:15 PM 60.6°F15.9°C 51.9°F11.1°C 73% Calm Calm 2.2 mph3.5 kmh 30.60 in1036.2 mb 0.00 in0.0 mm 0.00 in0.0 mm 0.19 in4.8 mm
10:30 PM 60.3°F15.7°C 51.6°F10.9°C 73% Calm Calm 3.1 mph5.0 kmh 30.60 in1036.2 mb 0.00 in0.0 mm 0.00 in0.0 mm 0.19 in4.8 mm
10:35 PM 60.3°F15.7°C 51.6°F10.9°C 73% 0.7 mph SW1.1 kmh SW 1.6 mph2.6 kmh 30.15 in1021.0 mb 0.00 in0.0 mm 0.00 in0.0 mm 0.20 in5.1 mm
10:45 PM 59.9°F15.5°C 51.2°F10.7°C 73% Calm Calm 2.2 mph3.5 kmh 30.59 in1035.9 mb 0.00 in0.0 mm 0.00 in0.0 mm 0.19 in4.8 mm
11:00 PM 59.5°F15.3°C 50.9°F10.5°C 73% 0.7 mph SW1.1 kmh SW 1.6 mph2.6 kmh 30.59 in1035.9 mb 0.00 in0.0 mm 0.00 in0.0 mm 0.10 in2.5 mm
11:05 PM 59.5°F15.3°C 50.9°F10.5°C 73% Calm Calm -- 30.15 in1021.0 mb 0.00 in0.0 mm 0.00 in0.0 mm 0.10 in2.5 mm
11:15 PM 59.0°F15.0°C 50.7°F10.4°C 74% Calm Calm 1.6 mph2.6 kmh 30.59 in1035.9 mb 0.00 in0.0 mm 0.00 in0.0 mm 0.10 in2.5 mm
11:30 PM 58.3°F14.6°C 50.4°F10.2°C 75% Calm Calm 1.6 mph2.6 kmh 30.60 in1036.2 mb 0.00 in0.0 mm 0.00 in0.0 mm 0.10 in2.5 mm
11:35 PM 58.3°F14.6°C 50.4°F10.2°C 75% Calm Calm 0.7 mph1.1 kmh 30.15 in1021.0 mb 0.00 in0.0 mm 0.00 in0.0 mm 0.10 in2.5 mm
11:45 PM 57.9°F14.4°C 50.4°F10.2°C 76% 0.7 mph SW1.1 kmh SW 1.6 mph2.6 kmh 30.59 in1035.9 mb 0.00 in0.0 mm 0.00 in0.0 mm 0.10 in2.5 mm